createdAt,value
2018-07-09T00:01:57.677Z,3.83
2018-07-09T00:04:28.738Z,4.70
2018-07-09T00:07:00.025Z,3.27
2018-07-09T00:09:31.305Z,4.47
2018-07-09T00:12:02.478Z,5.57
2018-07-09T00:14:33.479Z,3.93
2018-07-09T00:17:04.874Z,5.10
2018-07-09T00:19:35.799Z,4.50
2018-07-09T00:22:08.564Z,4.23
2018-07-09T00:24:39.506Z,4.20
2018-07-09T00:27:10.534Z,9.27
2018-07-09T00:29:41.546Z,3.87
2018-07-09T00:32:12.594Z,4.07
2018-07-09T00:34:44.336Z,4.63
2018-07-09T00:37:15.486Z,3.40
2018-07-09T00:39:46.404Z,4.90
2018-07-09T00:42:17.724Z,4.57
2018-07-09T00:44:48.712Z,5.00
2018-07-09T00:47:19.870Z,3.80
2018-07-09T00:49:51.293Z,3.33
2018-07-09T00:52:24.334Z,4.97
2018-07-09T00:54:55.630Z,3.53
2018-07-09T01:00:06.565Z,3.97
2018-07-09T01:02:37.675Z,7.60
2018-07-09T01:05:09.071Z,6.40
2018-07-09T01:07:40.224Z,6.33
2018-07-09T01:10:12.664Z,5.60
2018-07-09T01:12:43.581Z,7.90
2018-07-09T01:15:14.566Z,7.30
2018-07-09T01:17:46.206Z,7.70
2018-07-09T01:20:17.651Z,4.77
2018-07-09T01:22:49.363Z,6.70
2018-07-09T01:25:23.125Z,6.17
2018-07-09T01:27:54.065Z,4.63
2018-07-09T01:30:25.960Z,4.60
2018-07-09T01:32:57.012Z,4.80
2018-07-09T01:35:28.302Z,5.10
2018-07-09T01:37:59.340Z,3.77
2018-07-09T01:40:30.228Z,5.97
2018-07-09T01:43:01.703Z,4.13
2018-07-09T01:45:32.535Z,6.60
2018-07-09T01:48:03.700Z,4.60
2018-07-09T01:50:34.671Z,5.40
2018-07-09T01:53:06.501Z,5.60
2018-07-09T01:55:38.051Z,5.33
2018-07-09T01:58:09.047Z,5.00
2018-07-09T02:00:41.631Z,5.67
2018-07-09T02:03:12.661Z,5.37
2018-07-09T02:05:43.907Z,6.27
2018-07-09T02:08:16.354Z,5.27
2018-07-09T02:10:47.558Z,6.73
2018-07-09T02:13:17.700Z,8.93
2018-07-09T02:15:49.025Z,7.67
2018-07-09T02:18:19.913Z,8.33
2018-07-09T02:20:51.005Z,5.80
2018-07-09T02:23:21.960Z,6.50
2018-07-09T02:25:52.735Z,4.23
2018-07-09T02:28:24.526Z,5.70
2018-07-09T02:30:55.881Z,4.50
2018-07-09T02:33:26.950Z,5.50
2018-07-09T02:35:57.928Z,6.30
2018-07-09T02:38:28.953Z,9.10
2018-07-09T02:41:00.032Z,6.67
2018-07-09T02:43:31.275Z,6.27
2018-07-09T02:46:02.970Z,7.20
2018-07-09T02:48:34.011Z,7.23
2018-07-09T02:51:05.052Z,5.47
2018-07-09T02:53:35.999Z,5.47
2018-07-09T02:56:08.121Z,6.60
2018-07-09T02:58:39.519Z,5.47
2018-07-09T03:01:10.643Z,9.23
2018-07-09T03:03:41.598Z,6.70
2018-07-09T03:06:12.545Z,5.43
2018-07-09T03:08:43.650Z,6.00
2018-07-09T03:11:14.882Z,5.53
2018-07-09T03:13:45.910Z,7.00
2018-07-09T03:16:17.085Z,6.97
2018-07-09T03:18:48.250Z,7.70
2018-07-09T03:21:19.689Z,10.70
2018-07-09T03:23:50.914Z,12.30
2018-07-09T03:26:22.454Z,10.50
2018-07-09T03:28:54.255Z,8.53
2018-07-09T03:31:25.058Z,8.00
2018-07-09T03:33:56.676Z,13.33
2018-07-09T03:36:27.849Z,10.17
2018-07-09T03:38:59.195Z,12.70
2018-07-09T03:41:30.551Z,9.53
2018-07-09T03:44:01.869Z,8.73
2018-07-09T03:46:32.850Z,10.00
2018-07-09T03:49:03.878Z,9.20
2018-07-09T03:51:34.706Z,9.10
2018-07-09T03:54:06.228Z,7.17
2018-07-09T03:56:37.221Z,6.50
2018-07-09T03:59:08.016Z,10.90
2018-07-09T04:01:38.978Z,8.30
2018-07-09T04:04:10.052Z,8.70
2018-07-09T04:06:41.174Z,9.20
2018-07-09T04:09:14.111Z,13.00
2018-07-09T04:11:44.894Z,8.27
2018-07-09T04:14:15.860Z,7.80
2018-07-09T04:16:46.780Z,9.27
2018-07-09T04:19:17.678Z,8.90
2018-07-09T04:21:48.621Z,7.83
2018-07-09T04:24:19.922Z,11.70
2018-07-09T04:26:50.828Z,14.60
2018-07-09T04:29:22.442Z,13.27
2018-07-09T04:31:53.510Z,12.80
2018-07-09T04:34:24.817Z,12.20
2018-07-09T04:36:57.365Z,13.87
2018-07-09T04:39:27.624Z,12.80
2018-07-09T04:41:58.828Z,14.10
2018-07-09T04:44:32.634Z,11.93
2018-07-09T04:47:06.868Z,11.70
2018-07-09T04:49:41.001Z,14.10
2018-07-09T04:52:11.408Z,14.83
2018-07-09T04:54:42.502Z,11.43
2018-07-09T04:57:13.574Z,14.67
2018-07-09T04:59:44.554Z,11.40
2018-07-09T05:02:16.374Z,14.27
2018-07-09T05:04:48.130Z,19.60
2018-07-09T05:07:19.250Z,13.83
2018-07-09T05:09:50.358Z,16.30
2018-07-09T05:12:21.583Z,12.37
2018-07-09T05:14:52.552Z,15.53
2018-07-09T05:17:24.529Z,14.50
2018-07-09T05:19:56.167Z,17.60
2018-07-09T05:22:27.078Z,18.87
2018-07-09T05:24:58.154Z,22.83
2018-07-09T05:27:29.250Z,23.87
2018-07-09T05:30:00.904Z,18.60
2018-07-09T05:32:32.350Z,18.23
2018-07-09T05:35:03.914Z,18.30
2018-07-09T05:37:35.347Z,25.00
2018-07-09T05:40:07.263Z,16.33
2018-07-09T05:42:39.873Z,15.90
2018-07-09T05:45:11.958Z,16.43
2018-07-09T05:47:43.142Z,17.60
2018-07-09T05:50:14.931Z,14.53
2018-07-09T05:52:46.148Z,20.57
2018-07-09T05:55:17.621Z,17.40
2018-07-09T05:57:48.790Z,15.90
2018-07-09T06:00:21.408Z,18.03
2018-07-09T06:02:52.713Z,16.63
2018-07-09T06:05:24.121Z,16.03
2018-07-09T06:07:55.217Z,17.33
2018-07-09T06:10:26.798Z,17.07
2018-07-09T06:12:57.783Z,17.67
2018-07-09T06:15:29.226Z,16.13
2018-07-09T06:18:00.189Z,17.13
2018-07-09T06:20:31.237Z,15.03
2018-07-09T06:23:03.593Z,14.43
2018-07-09T06:25:34.801Z,18.50
2018-07-09T06:28:07.010Z,17.70
2018-07-09T06:30:38.141Z,15.10
2018-07-09T06:33:09.944Z,14.10
2018-07-09T06:35:41.147Z,15.23
2018-07-09T06:38:11.913Z,16.90
2018-07-09T06:40:44.178Z,23.90
2018-07-09T06:43:15.075Z,15.10
2018-07-09T06:45:56.174Z,15.10
2018-07-09T06:48:27.276Z,13.23
2018-07-09T06:50:58.256Z,16.83
2018-07-09T06:53:29.443Z,16.57
2018-07-09T06:56:00.666Z,13.33
2018-07-09T06:58:32.114Z,13.77
2018-07-09T07:01:03.405Z,14.50
2018-07-09T07:03:35.966Z,16.47
2018-07-09T07:06:07.578Z,15.93
2018-07-09T07:08:39.684Z,12.47
2018-07-09T07:11:10.710Z,13.90
2018-07-09T07:13:44.007Z,16.50
2018-07-09T07:16:15.343Z,12.80
2018-07-09T07:18:46.785Z,11.97
2018-07-09T07:21:17.943Z,12.10
2018-07-09T07:23:49.139Z,15.03
2018-07-09T07:26:20.112Z,13.10
2018-07-09T07:28:51.566Z,15.07
2018-07-09T07:31:23.001Z,12.50
2018-07-09T07:33:54.036Z,13.53
2018-07-09T07:36:25.648Z,12.80
2018-07-09T07:38:56.951Z,16.73
2018-07-09T07:41:27.933Z,12.90
2018-07-09T07:43:59.335Z,13.00
2018-07-09T07:46:30.266Z,12.97
2018-07-09T07:49:01.745Z,16.80
2018-07-09T07:51:32.918Z,11.70
2018-07-09T07:54:04.083Z,11.80
2018-07-09T07:56:35.371Z,12.90
2018-07-09T07:59:07.855Z,15.70
2018-07-09T08:01:38.880Z,9.70
2018-07-09T08:04:10.014Z,10.07
2018-07-09T08:06:41.891Z,11.90
2018-07-09T08:09:12.317Z,13.57
2018-07-09T08:11:48.562Z,12.87
2018-07-09T08:14:14.140Z,12.10
2018-07-09T08:16:45.424Z,8.37
2018-07-09T08:19:17.718Z,14.63
2018-07-09T08:21:49.233Z,9.50
2018-07-09T08:24:20.410Z,11.20
2018-07-09T08:26:51.315Z,11.67
2018-07-09T08:29:22.495Z,10.83
2018-07-09T08:31:53.635Z,10.43
2018-07-09T08:34:24.681Z,9.93
2018-07-09T08:36:56.584Z,9.43
2018-07-09T08:39:27.723Z,13.03
2018-07-09T08:41:59.118Z,20.73
2018-07-09T08:44:30.446Z,12.63
2018-07-09T08:47:01.496Z,14.57
2018-07-09T08:49:33.722Z,13.50
2018-07-09T08:52:05.014Z,10.90
2018-07-09T08:54:36.228Z,15.63
2018-07-09T08:57:07.551Z,16.20
2018-07-09T08:59:39.437Z,12.80
2018-07-09T09:02:11.663Z,10.57
2018-07-09T09:04:43.290Z,13.83
2018-07-09T09:07:14.187Z,12.80
2018-07-09T09:09:45.379Z,12.40
2018-07-09T09:12:16.212Z,24.33
2018-07-09T09:14:47.852Z,43.07
2018-07-09T09:17:18.839Z,20.80
2018-07-09T09:19:51.554Z,12.73
2018-07-09T09:22:23.022Z,18.93
2018-07-09T09:24:54.369Z,10.67
2018-07-09T09:27:26.255Z,10.77
2018-07-09T09:29:56.478Z,9.27
2018-07-09T09:32:27.449Z,8.70
2018-07-09T09:34:58.522Z,10.10
2018-07-09T09:37:30.363Z,7.70
2018-07-09T09:40:02.312Z,9.30
2018-07-09T09:42:33.624Z,9.50
2018-07-09T09:45:05.014Z,8.23
2018-07-09T09:47:38.424Z,11.47
2018-07-09T09:50:10.406Z,9.77
2018-07-09T09:52:41.545Z,8.40
2018-07-09T09:55:12.531Z,21.23
2018-07-09T09:57:43.894Z,11.40
2018-07-09T10:00:15.693Z,10.77
2018-07-09T10:02:48.087Z,8.00
2018-07-09T10:05:19.463Z,8.53
2018-07-09T10:07:51.028Z,10.77
2018-07-09T10:10:22.122Z,8.40
2018-07-09T10:12:53.378Z,10.17
2018-07-09T10:15:24.809Z,12.80
2018-07-09T10:17:56.484Z,11.80
2018-07-09T10:20:27.765Z,8.60
2018-07-09T10:22:58.915Z,10.20
2018-07-09T10:25:29.994Z,11.67
2018-07-09T10:28:01.909Z,10.93
2018-07-09T10:30:33.347Z,11.73
2018-07-09T10:33:04.739Z,9.33
2018-07-09T10:35:36.279Z,13.07
2018-07-09T10:38:07.626Z,10.87
2018-07-09T10:40:38.507Z,8.73
2018-07-09T10:43:10.166Z,10.33
2018-07-09T10:45:41.138Z,11.57
2018-07-09T10:48:12.313Z,11.30
2018-07-09T10:50:43.397Z,10.00
2018-07-09T10:53:17.078Z,11.73
2018-07-09T10:55:48.385Z,14.00
2018-07-09T10:58:20.030Z,9.20
2018-07-09T11:00:51.879Z,9.53
2018-07-09T11:03:23.059Z,10.33
2018-07-09T11:05:54.203Z,9.57
2018-07-09T11:08:26.688Z,12.60
2018-07-09T11:10:58.317Z,11.13
2018-07-09T11:13:30.032Z,8.50
2018-07-09T11:16:02.492Z,14.63
2018-07-09T11:18:33.186Z,15.33
2018-07-09T11:21:05.430Z,10.20
2018-07-09T11:23:36.770Z,15.90
2018-07-09T11:26:08.633Z,8.10
2018-07-09T11:28:39.465Z,8.63
2018-07-09T11:31:10.425Z,14.40
2018-07-09T11:33:42.226Z,10.27
2018-07-09T11:36:14.775Z,10.73
2018-07-09T11:38:45.966Z,9.63
2018-07-09T11:41:17.448Z,14.10
2018-07-09T11:43:48.719Z,9.07
2018-07-09T11:46:21.474Z,9.63
2018-07-09T11:48:52.586Z,9.07
2018-07-09T11:51:23.357Z,9.83
2018-07-09T11:53:54.367Z,8.07
2018-07-09T11:56:25.951Z,7.03
2018-07-09T11:58:57.395Z,7.17
2018-07-09T12:01:30.363Z,6.93
2018-07-09T12:04:02.541Z,9.43
2018-07-09T12:06:33.583Z,6.27
2018-07-09T12:09:05.728Z,7.47
2018-07-09T12:11:36.778Z,6.10
2018-07-09T12:14:08.828Z,6.80
2018-07-09T12:16:40.008Z,6.87
2018-07-09T12:19:11.119Z,7.57
2018-07-09T12:21:42.254Z,6.97
2018-07-09T12:24:12.801Z,10.33
2018-07-09T12:26:43.857Z,15.93
2018-07-09T12:29:14.921Z,5.83
2018-07-09T12:31:46.398Z,5.40
2018-07-09T12:34:17.581Z,4.60
2018-07-09T12:36:48.802Z,4.17
2018-07-09T12:39:20.196Z,4.30
2018-07-09T12:41:51.316Z,8.20
2018-07-09T12:44:22.810Z,6.30
2018-07-09T12:46:54.390Z,5.50
2018-07-09T12:49:25.974Z,4.37
2018-07-09T12:51:57.593Z,4.60
2018-07-09T12:54:28.324Z,4.13
2018-07-09T12:56:59.061Z,5.83
2018-07-09T12:59:30.634Z,3.23
2018-07-09T13:02:01.792Z,6.27
2018-07-09T13:04:33.347Z,4.10
2018-07-09T13:07:04.602Z,3.53
2018-07-09T13:09:35.695Z,5.80
2018-07-09T13:12:06.991Z,5.93
2018-07-09T13:14:38.717Z,3.40
2018-07-09T13:17:09.113Z,5.27
2018-07-09T13:19:41.646Z,5.30
2018-07-09T13:22:13.153Z,5.50
2018-07-09T13:24:43.497Z,3.43
2018-07-09T13:27:14.868Z,6.00
2018-07-09T13:29:46.308Z,4.53
2018-07-09T13:32:17.466Z,3.20
2018-07-09T13:34:49.825Z,5.63
2018-07-09T13:37:21.307Z,8.03
2018-07-09T13:39:53.534Z,6.03
2018-07-09T13:42:24.551Z,2.93
2018-07-09T13:44:55.778Z,3.00
2018-07-09T13:47:27.563Z,2.47
2018-07-09T13:50:00.279Z,4.70
2018-07-09T13:52:30.856Z,3.30
2018-07-09T13:55:02.225Z,3.43
2018-07-09T13:57:34.246Z,3.80
2018-07-09T14:00:06.458Z,4.03
2018-07-09T14:02:37.518Z,5.87
2018-07-09T14:05:08.330Z,3.20
2018-07-09T14:07:39.854Z,2.53
2018-07-09T14:10:11.505Z,4.30
2018-07-09T14:12:42.396Z,3.37
2018-07-09T14:15:14.190Z,3.20
2018-07-09T14:17:45.699Z,3.50
2018-07-09T14:20:33.691Z,2.80
2018-07-09T14:23:05.352Z,5.83
2018-07-09T14:25:36.852Z,4.00
2018-07-09T14:28:08.233Z,6.73
2018-07-09T14:30:39.435Z,6.10
2018-07-09T14:33:11.618Z,4.27
2018-07-09T14:35:42.240Z,5.03
2018-07-09T14:38:13.452Z,7.63
2018-07-09T14:40:45.097Z,6.87
2018-07-09T14:43:16.126Z,6.80
2018-07-09T14:45:47.221Z,3.63
2018-07-09T14:48:18.346Z,10.10
2018-07-09T14:50:49.989Z,4.53
2018-07-09T14:53:21.289Z,3.70
2018-07-09T14:55:52.718Z,4.80
2018-07-09T14:58:23.662Z,3.80
2018-07-09T15:00:55.088Z,3.70
2018-07-09T15:03:27.129Z,4.67
2018-07-09T15:05:59.218Z,5.37
2018-07-09T15:08:30.127Z,3.00
2018-07-09T15:11:00.309Z,7.67
2018-07-09T15:13:31.650Z,5.90
2018-07-09T15:16:03.058Z,7.37
2018-07-09T15:18:34.000Z,3.60
2018-07-09T15:21:05.389Z,3.83
2018-07-09T15:23:36.823Z,2.90
2018-07-09T15:26:08.870Z,3.27
2018-07-09T15:28:39.970Z,2.50
2018-07-09T15:31:12.486Z,3.50
2018-07-09T15:33:43.980Z,8.60
2018-07-09T15:36:15.234Z,4.00
2018-07-09T15:38:46.262Z,4.70
2018-07-09T15:41:17.281Z,3.43
2018-07-09T15:44:00.729Z,5.80
2018-07-09T15:46:31.297Z,4.53
2018-07-09T15:49:03.449Z,2.43
2018-07-09T15:51:34.773Z,3.43
2018-07-09T15:54:05.848Z,4.10
2018-07-09T15:56:37.382Z,4.50
2018-07-09T15:59:07.795Z,3.53
2018-07-09T16:01:38.783Z,4.27
2018-07-09T16:04:09.658Z,4.40
2018-07-09T16:06:41.024Z,6.10
2018-07-09T16:09:12.169Z,6.30
2018-07-09T16:11:43.078Z,6.40
2018-07-09T16:14:14.029Z,5.10
2018-07-09T16:16:45.516Z,2.00
2018-07-09T16:19:18.339Z,4.40
2018-07-09T16:21:49.925Z,2.30
2018-07-09T16:24:21.201Z,2.80
2018-07-09T16:26:52.450Z,3.53
2018-07-09T16:29:22.975Z,5.00
2018-07-09T16:31:54.326Z,3.13
2018-07-09T16:34:25.215Z,3.10
2018-07-09T16:36:56.500Z,4.43
2018-07-09T16:39:28.182Z,3.70
2018-07-09T16:41:59.442Z,2.47
2018-07-09T16:44:30.065Z,7.93
2018-07-09T16:47:00.938Z,4.47
2018-07-09T16:49:32.127Z,3.37
2018-07-09T16:52:03.899Z,5.80
2018-07-09T16:54:35.911Z,4.40
2018-07-09T16:57:06.914Z,3.33
2018-07-09T16:59:37.929Z,3.67
2018-07-09T17:02:09.674Z,4.67
2018-07-09T17:04:40.904Z,2.63
2018-07-09T17:07:11.906Z,5.10
2018-07-09T17:09:43.163Z,5.33
2018-07-09T17:12:14.435Z,6.30
2018-07-09T17:14:45.694Z,2.70
2018-07-09T17:17:17.700Z,8.63
2018-07-09T17:19:48.838Z,6.30
2018-07-09T17:22:20.096Z,4.17
2018-07-09T17:24:51.030Z,9.17
2018-07-09T17:27:22.253Z,3.20
2018-07-09T17:29:53.174Z,5.73
2018-07-09T17:32:25.094Z,6.80
2018-07-09T17:34:58.658Z,6.83
2018-07-09T17:37:29.710Z,7.37
2018-07-09T17:40:00.633Z,5.87
2018-07-09T17:42:31.786Z,4.37
2018-07-09T17:45:03.091Z,7.70
2018-07-09T17:47:34.338Z,5.63
2018-07-09T17:50:05.834Z,3.97
2018-07-09T17:52:37.001Z,4.83
2018-07-09T17:55:09.807Z,7.00
2018-07-09T17:57:41.306Z,8.60
2018-07-09T18:00:12.344Z,6.93
2018-07-09T18:02:43.028Z,4.73
2018-07-09T18:05:14.007Z,11.73
2018-07-09T18:07:45.073Z,3.80
2018-07-09T18:10:15.911Z,10.50
2018-07-09T18:12:47.640Z,9.60
2018-07-09T18:15:18.644Z,6.20
2018-07-09T18:17:49.747Z,8.83
2018-07-09T18:20:21.176Z,6.30
2018-07-09T18:22:52.102Z,8.20
2018-07-09T18:25:23.196Z,8.33
2018-07-09T18:27:54.710Z,7.50
2018-07-09T18:30:27.246Z,5.43
2018-07-09T18:32:58.499Z,5.47
2018-07-09T18:35:29.740Z,5.60
2018-07-09T18:38:04.072Z,6.73
2018-07-09T18:40:35.702Z,11.80
2018-07-09T18:43:13.904Z,5.27
2018-07-09T18:45:45.200Z,5.37
2018-07-09T18:48:16.316Z,3.80
2018-07-09T18:50:48.709Z,6.27
2018-07-09T18:53:19.695Z,10.73
2018-07-09T18:55:50.683Z,6.47
2018-07-09T18:58:22.385Z,3.80
2018-07-09T19:00:53.834Z,3.57
2018-07-09T19:03:25.224Z,6.30
2018-07-09T19:07:09.218Z,11.77
2018-07-09T19:09:41.284Z,6.20
2018-07-09T19:12:12.776Z,8.33
2018-07-09T19:14:45.399Z,4.27
2018-07-09T19:18:28.554Z,8.67
2018-07-09T19:21:31.972Z,4.90
2018-07-09T19:24:01.959Z,5.03
2018-07-09T19:26:31.303Z,13.37
2018-07-09T19:29:00.647Z,4.10
2018-07-09T19:31:30.242Z,5.70
2018-07-09T19:34:00.243Z,9.23
2018-07-09T19:36:31.466Z,3.70
2018-07-09T19:39:00.676Z,5.43
2018-07-09T19:41:30.072Z,5.70
2018-07-09T19:43:59.469Z,5.83
2018-07-09T19:46:29.995Z,4.50
2018-07-09T19:48:59.797Z,7.20
2018-07-09T19:51:30.374Z,6.53
2018-07-09T19:53:59.907Z,4.70
2018-07-09T19:56:31.497Z,8.73
2018-07-09T19:59:01.068Z,4.23
2018-07-09T20:01:30.872Z,7.83
2018-07-09T20:04:01.223Z,6.00
2018-07-09T20:06:31.998Z,3.80
2018-07-09T20:09:07.224Z,7.20
2018-07-09T20:11:43.127Z,3.17
2018-07-09T20:14:18.165Z,7.63
2018-07-09T20:16:52.452Z,4.47
2018-07-09T20:19:21.594Z,6.67
2018-07-09T20:21:50.704Z,5.50
2018-07-09T20:24:20.296Z,11.00
2018-07-09T20:26:49.786Z,3.43
2018-07-09T20:29:20.309Z,6.47
2018-07-09T20:31:49.937Z,6.73
2018-07-09T20:34:19.637Z,4.67
2018-07-09T20:36:49.747Z,6.47
2018-07-09T20:39:18.886Z,5.87
2018-07-09T20:41:47.957Z,6.83
2018-07-09T20:44:17.466Z,4.90
2018-07-09T20:46:46.775Z,6.33
2018-07-09T20:49:16.062Z,3.03
2018-07-09T20:51:47.841Z,5.50
2018-07-09T20:54:16.983Z,5.87
2018-07-09T20:56:46.505Z,6.93
2018-07-09T20:59:15.614Z,4.33
2018-07-09T21:01:45.197Z,5.13
2018-07-09T21:04:19.367Z,4.57
2018-07-09T21:06:49.090Z,3.40
2018-07-09T21:09:18.528Z,14.53
2018-07-09T21:11:47.676Z,3.23
2018-07-09T21:14:20.986Z,7.47
2018-07-09T21:16:50.072Z,6.90
2018-07-09T21:19:19.452Z,7.07
2018-07-09T21:21:48.845Z,6.33
2018-07-09T21:24:17.755Z,6.97
2018-07-09T21:26:46.952Z,11.03
2018-07-09T21:29:16.631Z,5.87
2018-07-09T21:31:45.737Z,4.73
2018-07-09T21:34:15.155Z,3.93
2018-07-09T21:36:44.898Z,4.47
2018-07-09T21:39:14.619Z,4.77
2018-07-09T21:41:43.860Z,5.53
2018-07-09T21:44:12.978Z,5.43
2018-07-09T21:46:42.489Z,7.40
2018-07-09T21:49:11.649Z,4.83
2018-07-09T21:51:41.525Z,4.90
2018-07-09T21:54:11.368Z,4.80
2018-07-09T21:56:40.782Z,6.50
2018-07-09T21:59:10.077Z,7.30
2018-07-09T22:01:39.558Z,4.93
2018-07-09T22:04:09.470Z,10.23
2018-07-09T22:06:38.591Z,4.50
2018-07-09T22:09:08.163Z,8.13
2018-07-09T22:11:37.527Z,3.30
2018-07-09T22:14:06.647Z,8.80
2018-07-09T22:16:35.725Z,6.03
2018-07-09T22:19:05.358Z,6.93
2018-07-09T22:21:34.683Z,5.17
2018-07-09T22:24:03.661Z,3.20
2018-07-09T22:26:43.771Z,4.70
2018-07-09T22:29:13.447Z,4.83
2018-07-09T22:31:44.789Z,3.07
2018-07-09T22:34:16.650Z,5.17
2018-07-09T22:36:47.533Z,7.63
2018-07-09T22:39:18.513Z,7.23
2018-07-09T22:41:50.226Z,8.37
2018-07-09T22:44:22.750Z,7.00
2018-07-09T22:46:54.014Z,4.27
2018-07-09T22:49:25.086Z,5.73
2018-07-09T22:51:56.593Z,7.67
2018-07-09T22:54:27.578Z,3.07
2018-07-09T22:56:58.938Z,6.80
2018-07-09T22:59:31.322Z,4.23
2018-07-09T23:02:02.264Z,6.93
2018-07-09T23:04:33.617Z,5.17
2018-07-09T23:07:04.926Z,9.70
2018-07-09T23:10:16.251Z,4.07
2018-07-09T23:13:25.025Z,4.30
2018-07-09T23:18:11.906Z,5.57
2018-07-09T23:22:55.299Z,9.00
2018-07-09T23:25:24.882Z,12.50
2018-07-09T23:27:54.138Z,2.97
2018-07-09T23:30:23.289Z,5.80
2018-07-09T23:32:53.928Z,8.73
2018-07-09T23:35:24.583Z,5.00
2018-07-09T23:37:53.920Z,8.23
2018-07-09T23:40:22.957Z,5.83
2018-07-09T23:42:52.529Z,5.80
2018-07-09T23:45:22.149Z,3.43
2018-07-09T23:47:51.837Z,4.60
2018-07-09T23:50:22.773Z,4.53
2018-07-09T23:52:53.358Z,4.80
2018-07-09T23:55:23.899Z,5.20
